N624JX KBJC-KLAS
Flight info
| Callsign | N624JX |
|---|---|
| Flight time | 1h 16m |
| Altitude | 43000 |
| Route | WNGSS1 CHNGY RIL CHESZ GGAPP CHOWW4 |
| Aircraft | C750/M-SBDE3FGHRWXY/S |
Departure
| Time | 2026-05-06 22:17 |
|---|---|
| Airport | Rocky Mountain Metropolitan Airport (KBJC) |
Arrival
| Time | 2026-05-06 23:33 |
|---|---|
| Airport | Harry Reid International Airport (KLAS) |
| Time | Latitude | Longitude | Altitude | Speed | Heading |
|---|---|---|---|---|---|
| 2026-05-06 22:01 | 39.90869 | -105.11146 | 5614 ft | 0 kts | 304° |
| 2026-05-06 22:10 | 39.90870 | -105.11147 | 5614 ft | 1 kts | 304° |
| 2026-05-06 22:10 | 39.90871 | -105.11169 | 5617 ft | 4 kts | 243° |
| 2026-05-06 22:11 | 39.90847 | -105.11189 | 5614 ft | 4 kts | 183° |
| 2026-05-06 22:11 | 39.90826 | -105.11162 | 5612 ft | 3 kts | 138° |
| 2026-05-06 22:11 | 39.90802 | -105.11168 | 5615 ft | 6 kts | 204° |
| 2026-05-06 22:11 | 39.90806 | -105.11211 | 5614 ft | 8 kts | 303° |
| 2026-05-06 22:12 | 39.90836 | -105.11269 | 5612 ft | 8 kts | 304° |
| 2026-05-06 22:12 | 39.90874 | -105.11340 | 5618 ft | 12 kts | 304° |
| 2026-05-06 22:12 | 39.90926 | -105.11438 | 5617 ft | 13 kts | 304° |
| 2026-05-06 22:12 | 39.90974 | -105.11530 | 5617 ft | 12 kts | 304° |
| 2026-05-06 22:13 | 39.91021 | -105.11620 | 5619 ft | 13 kts | 304° |
| 2026-05-06 22:13 | 39.91075 | -105.11723 | 5619 ft | 15 kts | 304° |
| 2026-05-06 22:13 | 39.91135 | -105.11836 | 5622 ft | 14 kts | 304° |
| 2026-05-06 22:13 | 39.91187 | -105.11935 | 5625 ft | 15 kts | 304° |
| 2026-05-06 22:14 | 39.91248 | -105.12051 | 5628 ft | 14 kts | 304° |
| 2026-05-06 22:14 | 39.91296 | -105.12143 | 5632 ft | 12 kts | 304° |
| 2026-05-06 22:14 | 39.91342 | -105.12230 | 5637 ft | 12 kts | 304° |
| 2026-05-06 22:14 | 39.91393 | -105.12328 | 5643 ft | 15 kts | 304° |
| 2026-05-06 22:15 | 39.91454 | -105.12442 | 5652 ft | 15 kts | 304° |
| 2026-05-06 22:15 | 39.91515 | -105.12558 | 5659 ft | 17 kts | 304° |
| 2026-05-06 22:15 | 39.91579 | -105.12680 | 5659 ft | 14 kts | 304° |
| 2026-05-06 22:15 | 39.91610 | -105.12744 | 5662 ft | 5 kts | 281° |
| 2026-05-06 22:16 | 39.91596 | -105.12772 | 5668 ft | 6 kts | 216° |
| 2026-05-06 22:16 | 39.91541 | -105.12820 | 5667 ft | 8 kts | 213° |
| 2026-05-06 22:16 | 39.91503 | -105.12789 | 5667 ft | 10 kts | 124° |
| 2026-05-06 22:16 | 39.91339 | -105.12477 | 5647 ft | 94 kts | 124° |
| 2026-05-06 22:17 | 39.90823 | -105.11492 | 5702 ft | 153 kts | 126° |
| 2026-05-06 22:17 | 39.90240 | -105.10358 | 6456 ft | 157 kts | 125° |
| 2026-05-06 22:17 | 39.89592 | -105.09120 | 7218 ft | 165 kts | 126° |
| 2026-05-06 22:17 | 39.88921 | -105.07862 | 7794 ft | 178 kts | 125° |
| 2026-05-06 22:18 | 39.88184 | -105.06489 | 8289 ft | 194 kts | 126° |
| 2026-05-06 22:18 | 39.87316 | -105.04848 | 8173 ft | 228 kts | 124° |
| 2026-05-06 22:18 | 39.86356 | -105.02964 | 8129 ft | 251 kts | 123° |
| 2026-05-06 22:18 | 39.85421 | -105.01113 | 8056 ft | 268 kts | 124° |
| 2026-05-06 22:19 | 39.83973 | -104.99601 | 8066 ft | 275 kts | 163° |
| 2026-05-06 22:19 | 39.82113 | -104.99726 | 9090 ft | 267 kts | 200° |
| 2026-05-06 22:19 | 39.80590 | -105.01088 | 9983 ft | 271 kts | 229° |
| 2026-05-06 22:19 | 39.79785 | -105.03292 | 10638 ft | 278 kts | 262° |
| 2026-05-06 22:20 | 39.80002 | -105.05775 | 11508 ft | 278 kts | 283° |
| 2026-05-06 22:20 | 39.80465 | -105.08258 | 12208 ft | 290 kts | 284° |
| 2026-05-06 22:20 | 39.80819 | -105.10889 | 12820 ft | 302 kts | 275° |
| 2026-05-06 22:20 | 39.80736 | -105.13577 | 13473 ft | 312 kts | 268° |
| 2026-05-06 22:21 | 39.80432 | -105.16429 | 14054 ft | 325 kts | 260° |
| 2026-05-06 22:21 | 39.79770 | -105.19297 | 14548 ft | 336 kts | 254° |
| 2026-05-06 22:21 | 39.79441 | -105.22319 | 14934 ft | 343 kts | 274° |
| 2026-05-06 22:21 | 39.79962 | -105.25364 | 15372 ft | 350 kts | 293° |
| 2026-05-06 22:22 | 39.81081 | -105.28180 | 16060 ft | 351 kts | 299° |
| 2026-05-06 22:22 | 39.82259 | -105.30976 | 16748 ft | 354 kts | 300° |
| 2026-05-06 22:22 | 39.83491 | -105.33775 | 17457 ft | 358 kts | 301° |
| 2026-05-06 22:22 | 39.84743 | -105.36599 | 18183 ft | 363 kts | 301° |
| 2026-05-06 22:23 | 39.85990 | -105.39475 | 18825 ft | 367 kts | 301° |
| 2026-05-06 22:23 | 39.87245 | -105.42390 | 19460 ft | 370 kts | 301° |
| 2026-05-06 22:23 | 39.88511 | -105.45337 | 20056 ft | 376 kts | 302° |
| 2026-05-06 22:23 | 39.89770 | -105.48290 | 20714 ft | 380 kts | 302° |
| 2026-05-06 22:24 | 39.91060 | -105.51316 | 21359 ft | 384 kts | 303° |
| 2026-05-06 22:24 | 39.92367 | -105.54373 | 22010 ft | 388 kts | 303° |
| 2026-05-06 22:24 | 39.93686 | -105.57462 | 22645 ft | 393 kts | 303° |
| 2026-05-06 22:24 | 39.95020 | -105.60594 | 23298 ft | 397 kts | 304° |
| 2026-05-06 22:25 | 39.96375 | -105.63807 | 23892 ft | 402 kts | 303° |
| 2026-05-06 22:25 | 39.97319 | -105.67323 | 24225 ft | 423 kts | 289° |
| 2026-05-06 22:25 | 39.97635 | -105.71183 | 24758 ft | 432 kts | 281° |
| 2026-05-06 22:25 | 39.97813 | -105.75113 | 25312 ft | 436 kts | 281° |
| 2026-05-06 22:26 | 39.97993 | -105.79077 | 25818 ft | 439 kts | 281° |
| 2026-05-06 22:26 | 39.98204 | -105.83064 | 26307 ft | 443 kts | 282° |
| 2026-05-06 22:26 | 39.98418 | -105.87093 | 26830 ft | 447 kts | 282° |
| 2026-05-06 22:26 | 39.98614 | -105.91159 | 27354 ft | 451 kts | 282° |
| 2026-05-06 22:27 | 39.98805 | -105.95259 | 27859 ft | 455 kts | 282° |
| 2026-05-06 22:27 | 39.98938 | -105.97994 | 28188 ft | 458 kts | 282° |
| 2026-05-06 22:27 | 39.99146 | -106.02155 | 28690 ft | 462 kts | 283° |
| 2026-05-06 22:27 | 39.99351 | -106.06355 | 29205 ft | 466 kts | 283° |
| 2026-05-06 22:28 | 39.99548 | -106.10581 | 29743 ft | 469 kts | 283° |
| 2026-05-06 22:28 | 39.99748 | -106.14845 | 30228 ft | 472 kts | 283° |
| 2026-05-06 22:28 | 39.99949 | -106.19115 | 30728 ft | 473 kts | 283° |
| 2026-05-06 22:28 | 40.00152 | -106.23411 | 31171 ft | 475 kts | 282° |
| 2026-05-06 22:29 | 40.00347 | -106.27702 | 31844 ft | 473 kts | 282° |
| 2026-05-06 22:29 | 40.00539 | -106.31972 | 32502 ft | 471 kts | 282° |
| 2026-05-06 22:29 | 40.00735 | -106.36225 | 33118 ft | 469 kts | 282° |
| 2026-05-06 22:29 | 40.00927 | -106.40457 | 33841 ft | 466 kts | 282° |
| 2026-05-06 22:30 | 40.00940 | -106.44710 | 34366 ft | 478 kts | 273° |
| 2026-05-06 22:30 | 40.00257 | -106.49001 | 34957 ft | 487 kts | 261° |
| 2026-05-06 22:30 | 39.99040 | -106.53142 | 35671 ft | 490 kts | 252° |
| 2026-05-06 22:30 | 39.97495 | -106.57083 | 36462 ft | 487 kts | 247° |
| 2026-05-06 22:31 | 39.95835 | -106.60898 | 37327 ft | 479 kts | 245° |
| 2026-05-06 22:31 | 39.94282 | -106.64688 | 38167 ft | 470 kts | 249° |
| 2026-05-06 22:31 | 39.92929 | -106.68514 | 38968 ft | 461 kts | 250° |
| 2026-05-06 22:31 | 39.91580 | -106.72281 | 39549 ft | 458 kts | 248° |
| 2026-05-06 22:32 | 39.90126 | -106.75968 | 40055 ft | 457 kts | 246° |
| 2026-05-06 22:32 | 39.88668 | -106.79619 | 40682 ft | 452 kts | 247° |
| 2026-05-06 22:32 | 39.87288 | -106.83270 | 41298 ft | 447 kts | 248° |
| 2026-05-06 22:32 | 39.85936 | -106.86903 | 41894 ft | 445 kts | 248° |
| 2026-05-06 22:33 | 39.84557 | -106.90487 | 42514 ft | 442 kts | 246° |
| 2026-05-06 22:33 | 39.83167 | -106.94045 | 43075 ft | 440 kts | 246° |
| 2026-05-06 22:33 | 39.80386 | -107.01311 | 43118 ft | 458 kts | 246° |
| 2026-05-06 22:34 | 39.77470 | -107.08853 | 43132 ft | 475 kts | 246° |
| 2026-05-06 22:34 | 39.74033 | -107.16382 | 43128 ft | 493 kts | 241° |
| 2026-05-06 22:35 | 39.70308 | -107.23985 | 43120 ft | 501 kts | 241° |
| 2026-05-06 22:35 | 39.66590 | -107.31669 | 43100 ft | 503 kts | 241° |
| 2026-05-06 22:36 | 39.62865 | -107.39285 | 43096 ft | 504 kts | 240° |
| 2026-05-06 22:36 | 39.59105 | -107.46989 | 43103 ft | 506 kts | 240° |
| 2026-05-06 22:37 | 39.55330 | -107.54685 | 43129 ft | 505 kts | 241° |
| 2026-05-06 22:37 | 39.51567 | -107.62351 | 43144 ft | 505 kts | 241° |
| 2026-05-06 22:38 | 39.47794 | -107.70012 | 43143 ft | 505 kts | 241° |
| 2026-05-06 22:38 | 39.44014 | -107.77669 | 43142 ft | 506 kts | 241° |
| 2026-05-06 22:39 | 39.40206 | -107.85368 | 43068 ft | 507 kts | 240° |
| 2026-05-06 22:39 | 39.36392 | -107.93054 | 43078 ft | 508 kts | 240° |
| 2026-05-06 22:40 | 39.32579 | -108.00727 | 43075 ft | 508 kts | 240° |
| 2026-05-06 22:40 | 39.28756 | -108.08395 | 43072 ft | 508 kts | 240° |
| 2026-05-06 22:41 | 39.23013 | -108.19884 | 43097 ft | 508 kts | 240° |
| 2026-05-06 22:42 | 39.19179 | -108.27532 | 43114 ft | 508 kts | 240° |
| 2026-05-06 22:42 | 39.15337 | -108.35175 | 43139 ft | 508 kts | 240° |
| 2026-05-06 22:43 | 39.11492 | -108.42808 | 43143 ft | 508 kts | 240° |
| 2026-05-06 22:43 | 39.07627 | -108.50465 | 43144 ft | 512 kts | 240° |
| 2026-05-06 22:44 | 39.03736 | -108.58147 | 43144 ft | 513 kts | 240° |
| 2026-05-06 22:44 | 38.99838 | -108.65831 | 43125 ft | 513 kts | 240° |
| 2026-05-06 22:45 | 38.95930 | -108.73512 | 43111 ft | 513 kts | 240° |
| 2026-05-06 22:45 | 38.92020 | -108.81183 | 43073 ft | 515 kts | 240° |
| 2026-05-06 22:46 | 38.88094 | -108.88864 | 43078 ft | 514 kts | 240° |
| 2026-05-06 22:46 | 38.84164 | -108.96534 | 43079 ft | 514 kts | 240° |
| 2026-05-06 22:47 | 38.80232 | -109.04193 | 43082 ft | 514 kts | 240° |
| 2026-05-06 22:47 | 38.76291 | -109.11848 | 43082 ft | 515 kts | 240° |
| 2026-05-06 22:48 | 38.72335 | -109.19517 | 43078 ft | 516 kts | 239° |
| 2026-05-06 22:48 | 38.68371 | -109.27180 | 43075 ft | 516 kts | 239° |
| 2026-05-06 22:49 | 38.64401 | -109.34839 | 43082 ft | 516 kts | 239° |
| 2026-05-06 22:49 | 38.60427 | -109.42485 | 43059 ft | 516 kts | 239° |
| 2026-05-06 22:50 | 38.56449 | -109.50125 | 43073 ft | 518 kts | 239° |
| 2026-05-06 22:50 | 38.52449 | -109.57785 | 43062 ft | 518 kts | 239° |
| 2026-05-06 22:51 | 38.48446 | -109.65433 | 43062 ft | 518 kts | 239° |
| 2026-05-06 22:51 | 38.44439 | -109.73072 | 43054 ft | 518 kts | 239° |
| 2026-05-06 22:52 | 38.40425 | -109.80706 | 43021 ft | 518 kts | 239° |
| 2026-05-06 22:52 | 38.36389 | -109.88366 | 43048 ft | 522 kts | 239° |
| 2026-05-06 22:53 | 38.32346 | -109.96016 | 43047 ft | 521 kts | 239° |
| 2026-05-06 22:53 | 38.28371 | -110.03710 | 43022 ft | 519 kts | 244° |
| 2026-05-06 22:54 | 38.25408 | -110.12012 | 43029 ft | 515 kts | 250° |
| 2026-05-06 22:54 | 38.22535 | -110.20372 | 43022 ft | 517 kts | 249° |
| 2026-05-06 22:55 | 38.19611 | -110.28710 | 43024 ft | 516 kts | 249° |
| 2026-05-06 22:55 | 38.16724 | -110.37070 | 43007 ft | 516 kts | 249° |
| 2026-05-06 22:56 | 38.13797 | -110.45388 | 43005 ft | 516 kts | 249° |
| 2026-05-06 22:56 | 38.10889 | -110.53736 | 42993 ft | 518 kts | 249° |
| 2026-05-06 22:57 | 38.07950 | -110.62069 | 42981 ft | 517 kts | 249° |
| 2026-05-06 22:57 | 38.05018 | -110.70409 | 42982 ft | 517 kts | 249° |
| 2026-05-06 22:58 | 38.02072 | -110.78737 | 42968 ft | 517 kts | 249° |
| 2026-05-06 22:58 | 37.99122 | -110.87073 | 42971 ft | 519 kts | 249° |
| 2026-05-06 22:59 | 37.96157 | -110.95410 | 42962 ft | 519 kts | 249° |
| 2026-05-06 22:59 | 37.93189 | -111.03744 | 42951 ft | 519 kts | 249° |
| 2026-05-06 23:00 | 37.90235 | -111.12011 | 42942 ft | 519 kts | 249° |
| 2026-05-06 23:00 | 37.87249 | -111.20347 | 42940 ft | 521 kts | 249° |
| 2026-05-06 23:01 | 37.84254 | -111.28683 | 42939 ft | 520 kts | 249° |
| 2026-05-06 23:01 | 37.81254 | -111.37010 | 42925 ft | 520 kts | 249° |
| 2026-05-06 23:02 | 37.78231 | -111.45380 | 42935 ft | 520 kts | 248° |
| 2026-05-06 23:02 | 37.75223 | -111.53681 | 42936 ft | 520 kts | 248° |
| 2026-05-06 23:03 | 37.72207 | -111.61985 | 42942 ft | 519 kts | 248° |
| 2026-05-06 23:03 | 37.69187 | -111.70274 | 42940 ft | 520 kts | 248° |
| 2026-05-06 23:04 | 37.66161 | -111.78560 | 43004 ft | 520 kts | 248° |
| 2026-05-06 23:04 | 37.63143 | -111.86800 | 43057 ft | 521 kts | 248° |
| 2026-05-06 23:05 | 37.60096 | -111.95096 | 43097 ft | 521 kts | 248° |
| 2026-05-06 23:05 | 37.57045 | -112.03382 | 43125 ft | 521 kts | 248° |
| 2026-05-06 23:06 | 37.53988 | -112.11658 | 43131 ft | 521 kts | 248° |
| 2026-05-06 23:06 | 37.50237 | -112.19516 | 43084 ft | 525 kts | 239° |
| 2026-05-06 23:07 | 37.46171 | -112.27228 | 43049 ft | 524 kts | 240° |
| 2026-05-06 23:07 | 37.42224 | -112.34951 | 43003 ft | 525 kts | 239° |
| 2026-05-06 23:08 | 37.38226 | -112.42558 | 42953 ft | 524 kts | 239° |
| 2026-05-06 23:08 | 37.34234 | -112.50275 | 42962 ft | 523 kts | 239° |
| 2026-05-06 23:09 | 37.30905 | -112.56617 | 42964 ft | 523 kts | 239° |
| 2026-05-06 23:09 | 37.26914 | -112.64257 | 42966 ft | 523 kts | 239° |
| 2026-05-06 23:10 | 37.22912 | -112.71884 | 42492 ft | 523 kts | 239° |
| 2026-05-06 23:10 | 37.20909 | -112.75689 | 41876 ft | 524 kts | 239° |
| 2026-05-06 23:10 | 37.18896 | -112.79523 | 41232 ft | 528 kts | 239° |
| 2026-05-06 23:10 | 37.16197 | -112.84653 | 40402 ft | 536 kts | 239° |
| 2026-05-06 23:11 | 37.14133 | -112.88559 | 39753 ft | 540 kts | 239° |
| 2026-05-06 23:11 | 37.12729 | -112.91216 | 39318 ft | 543 kts | 239° |
| 2026-05-06 23:11 | 37.10633 | -112.95186 | 38637 ft | 549 kts | 239° |
| 2026-05-06 23:11 | 37.08519 | -112.99183 | 37930 ft | 551 kts | 239° |
| 2026-05-06 23:12 | 37.06399 | -113.03183 | 37260 ft | 553 kts | 239° |
| 2026-05-06 23:12 | 37.04273 | -113.07188 | 36582 ft | 553 kts | 239° |
| 2026-05-06 23:12 | 37.02136 | -113.11215 | 35868 ft | 556 kts | 239° |
| 2026-05-06 23:12 | 36.99995 | -113.15245 | 35189 ft | 557 kts | 239° |
| 2026-05-06 23:13 | 36.97844 | -113.19284 | 34470 ft | 559 kts | 239° |
| 2026-05-06 23:13 | 36.95685 | -113.23332 | 33715 ft | 561 kts | 239° |
| 2026-05-06 23:13 | 36.93527 | -113.27376 | 32997 ft | 555 kts | 239° |
| 2026-05-06 23:13 | 36.91395 | -113.31366 | 32286 ft | 549 kts | 239° |
| 2026-05-06 23:14 | 36.89311 | -113.35262 | 31594 ft | 543 kts | 239° |
| 2026-05-06 23:14 | 36.87222 | -113.39165 | 30891 ft | 538 kts | 239° |
| 2026-05-06 23:14 | 36.85153 | -113.43026 | 30190 ft | 532 kts | 239° |
| 2026-05-06 23:14 | 36.83103 | -113.46842 | 29524 ft | 526 kts | 239° |
| 2026-05-06 23:15 | 36.81073 | -113.50619 | 28859 ft | 521 kts | 239° |
| 2026-05-06 23:15 | 36.79067 | -113.54357 | 28216 ft | 516 kts | 239° |
| 2026-05-06 23:15 | 36.77087 | -113.58058 | 27571 ft | 511 kts | 239° |
| 2026-05-06 23:15 | 36.75122 | -113.61723 | 26926 ft | 505 kts | 239° |
| 2026-05-06 23:16 | 36.73147 | -113.65394 | 26282 ft | 501 kts | 239° |
| 2026-05-06 23:16 | 36.71218 | -113.68975 | 25656 ft | 496 kts | 238° |
| 2026-05-06 23:16 | 36.69305 | -113.72528 | 25164 ft | 492 kts | 238° |
| 2026-05-06 23:16 | 36.67406 | -113.76054 | 24787 ft | 491 kts | 238° |
| 2026-05-06 23:17 | 36.65510 | -113.79566 | 24167 ft | 485 kts | 238° |
| 2026-05-06 23:17 | 36.63639 | -113.83025 | 23529 ft | 479 kts | 238° |
| 2026-05-06 23:17 | 36.61791 | -113.86441 | 22854 ft | 473 kts | 238° |
| 2026-05-06 23:17 | 36.59962 | -113.89823 | 22221 ft | 469 kts | 238° |
| 2026-05-06 23:18 | 36.58075 | -113.93113 | 21597 ft | 465 kts | 234° |
| 2026-05-06 23:18 | 36.56092 | -113.96270 | 20994 ft | 461 kts | 234° |
| 2026-05-06 23:18 | 36.54159 | -113.99432 | 20384 ft | 457 kts | 234° |
| 2026-05-06 23:18 | 36.52271 | -114.02515 | 19787 ft | 435 kts | 234° |
| 2026-05-06 23:19 | 36.50468 | -114.05394 | 19226 ft | 410 kts | 234° |
| 2026-05-06 23:19 | 36.48759 | -114.08121 | 18694 ft | 389 kts | 234° |
| 2026-05-06 23:19 | 36.47149 | -114.10721 | 18198 ft | 371 kts | 234° |
| 2026-05-06 23:19 | 36.45609 | -114.13210 | 17684 ft | 356 kts | 234° |
| 2026-05-06 23:20 | 36.44111 | -114.15613 | 17215 ft | 349 kts | 234° |
| 2026-05-06 23:20 | 36.42635 | -114.17979 | 16757 ft | 345 kts | 234° |
| 2026-05-06 23:20 | 36.41171 | -114.20327 | 16305 ft | 343 kts | 234° |
| 2026-05-06 23:20 | 36.39716 | -114.22660 | 15852 ft | 340 kts | 234° |
| 2026-05-06 23:21 | 36.38265 | -114.24969 | 15409 ft | 339 kts | 233° |
| 2026-05-06 23:21 | 36.36802 | -114.27250 | 14956 ft | 337 kts | 233° |
| 2026-05-06 23:21 | 36.35351 | -114.29513 | 14507 ft | 335 kts | 233° |
| 2026-05-06 23:21 | 36.33914 | -114.31769 | 14074 ft | 332 kts | 233° |
| 2026-05-06 23:22 | 36.32489 | -114.34011 | 13631 ft | 330 kts | 233° |
| 2026-05-06 23:22 | 36.31070 | -114.36233 | 13173 ft | 327 kts | 233° |
| 2026-05-06 23:22 | 36.29658 | -114.38441 | 12741 ft | 327 kts | 233° |
| 2026-05-06 23:22 | 36.28255 | -114.40636 | 12312 ft | 322 kts | 233° |
| 2026-05-06 23:23 | 36.26870 | -114.42801 | 11890 ft | 319 kts | 233° |
| 2026-05-06 23:23 | 36.25562 | -114.44998 | 11440 ft | 314 kts | 242° |
| 2026-05-06 23:23 | 36.24794 | -114.47492 | 11046 ft | 308 kts | 256° |
| 2026-05-06 23:23 | 36.24137 | -114.50023 | 10661 ft | 308 kts | 255° |
| 2026-05-06 23:24 | 36.23458 | -114.52530 | 10250 ft | 305 kts | 255° |
| 2026-05-06 23:24 | 36.22774 | -114.55003 | 9895 ft | 301 kts | 255° |
| 2026-05-06 23:24 | 36.22108 | -114.57449 | 9846 ft | 300 kts | 255° |
| 2026-05-06 23:24 | 36.21443 | -114.59912 | 9626 ft | 302 kts | 255° |
| 2026-05-06 23:25 | 36.20776 | -114.62370 | 9357 ft | 300 kts | 255° |
| 2026-05-06 23:25 | 36.20111 | -114.64800 | 9086 ft | 295 kts | 255° |
| 2026-05-06 23:25 | 36.19452 | -114.67215 | 8817 ft | 297 kts | 255° |
| 2026-05-06 23:25 | 36.18795 | -114.69629 | 8540 ft | 295 kts | 255° |
| 2026-05-06 23:26 | 36.18140 | -114.72024 | 8271 ft | 293 kts | 254° |
| 2026-05-06 23:26 | 36.17487 | -114.74410 | 7975 ft | 292 kts | 254° |
| 2026-05-06 23:26 | 36.16839 | -114.76779 | 7723 ft | 290 kts | 254° |
| 2026-05-06 23:26 | 36.16193 | -114.79140 | 7456 ft | 289 kts | 253° |
| 2026-05-06 23:27 | 36.15553 | -114.81473 | 7182 ft | 280 kts | 253° |
| 2026-05-06 23:27 | 36.14941 | -114.83693 | 6931 ft | 267 kts | 253° |
| 2026-05-06 23:27 | 36.14338 | -114.85895 | 6889 ft | 262 kts | 253° |
| 2026-05-06 23:27 | 36.13749 | -114.88045 | 6658 ft | 264 kts | 253° |
| 2026-05-06 23:28 | 36.13342 | -114.90228 | 6292 ft | 258 kts | 270° |
| 2026-05-06 23:28 | 36.13452 | -114.92386 | 6024 ft | 245 kts | 276° |
| 2026-05-06 23:28 | 36.13576 | -114.94448 | 5746 ft | 236 kts | 276° |
| 2026-05-06 23:28 | 36.13703 | -114.96441 | 5455 ft | 229 kts | 276° |
| 2026-05-06 23:29 | 36.13828 | -114.98375 | 5185 ft | 220 kts | 276° |
| 2026-05-06 23:29 | 36.13925 | -115.00255 | 4910 ft | 213 kts | 275° |
| 2026-05-06 23:29 | 36.13984 | -115.01601 | 4716 ft | 209 kts | 274° |
| 2026-05-06 23:29 | 36.14095 | -115.03897 | 4394 ft | 210 kts | 274° |
| 2026-05-06 23:30 | 36.14183 | -115.05681 | 4210 ft | 207 kts | 274° |
| 2026-05-06 23:30 | 36.14195 | -115.07429 | 3945 ft | 200 kts | 268° |
| 2026-05-06 23:30 | 36.14167 | -115.09031 | 3759 ft | 171 kts | 271° |
| 2026-05-06 23:30 | 36.14162 | -115.10423 | 3537 ft | 152 kts | 270° |
| 2026-05-06 23:31 | 36.14042 | -115.11660 | 3344 ft | 140 kts | 261° |
| 2026-05-06 23:31 | 36.13806 | -115.12801 | 3164 ft | 137 kts | 244° |
| 2026-05-06 23:31 | 36.13201 | -115.13718 | 2971 ft | 137 kts | 218° |
| 2026-05-06 23:31 | 36.12349 | -115.14271 | 2758 ft | 134 kts | 203° |
| 2026-05-06 23:32 | 36.11510 | -115.14750 | 2585 ft | 133 kts | 203° |
| 2026-05-06 23:32 | 36.10856 | -115.15128 | 2444 ft | 134 kts | 203° |
| 2026-05-06 23:32 | 36.10092 | -115.15572 | 2223 ft | 135 kts | 203° |
| 2026-05-06 23:32 | 36.08999 | -115.16199 | 2119 ft | 98 kts | 205° |
| 2026-05-06 23:33 | 36.08663 | -115.16392 | 2131 ft | 57 kts | 204° |
| 2026-05-06 23:33 | 36.08406 | -115.16619 | 2143 ft | 19 kts | 233° |
| 2026-05-06 23:33 | 36.08367 | -115.16687 | 2148 ft | 3 kts | 237° |
| 2026-05-06 23:33 | 36.08365 | -115.16693 | 2150 ft | 0 kts | 238° |
| 2026-05-06 23:34 | 36.08331 | -115.16728 | 2152 ft | 12 kts | 213° |
| 2026-05-06 23:34 | 36.08274 | -115.16772 | 2151 ft | 12 kts | 231° |
| 2026-05-06 23:34 | 36.08277 | -115.16835 | 2154 ft | 5 kts | 311° |
| 2026-05-06 23:34 | 36.08340 | -115.16817 | 2158 ft | 16 kts | 25° |
| 2026-05-06 23:35 | 36.08455 | -115.16751 | 2155 ft | 20 kts | 24° |
| 2026-05-06 23:35 | 36.08588 | -115.16674 | 2149 ft | 21 kts | 25° |
| 2026-05-06 23:35 | 36.08723 | -115.16597 | 2147 ft | 22 kts | 25° |
| 2026-05-06 23:35 | 36.08871 | -115.16512 | 2141 ft | 24 kts | 25° |
| 2026-05-06 23:36 | 36.09021 | -115.16426 | 2136 ft | 24 kts | 25° |
| 2026-05-06 23:36 | 36.09159 | -115.16347 | 2131 ft | 21 kts | 25° |
| 2026-05-06 23:36 | 36.09287 | -115.16274 | 2126 ft | 21 kts | 25° |
| 2026-05-06 23:36 | 36.09422 | -115.16196 | 2121 ft | 22 kts | 25° |
| 2026-05-06 23:37 | 36.09547 | -115.16124 | 2119 ft | 18 kts | 25° |
| 2026-05-06 23:37 | 36.09662 | -115.16058 | 2114 ft | 17 kts | 25° |
| 2026-05-06 23:37 | 36.09744 | -115.16015 | 2111 ft | 11 kts | 5° |
| 2026-05-06 23:37 | 36.09782 | -115.16062 | 2114 ft | 6 kts | 296° |
| 2026-05-06 23:38 | 36.09810 | -115.16090 | 2116 ft | 7 kts | 354° |
| 2026-05-06 23:38 | 36.09871 | -115.16050 | 2114 ft | 9 kts | 35° |
| 2026-05-06 23:38 | 36.09908 | -115.16008 | 2111 ft | 5 kts | 93° |
| 2026-05-06 23:38 | 36.09902 | -115.15987 | 2110 ft | 0 kts | 114° |